createdAt,value
2023-05-03T00:00:20.796Z,21.75
2023-05-03T00:01:20.847Z,21.75
2023-05-03T00:02:20.918Z,21.74
2023-05-03T00:03:20.984Z,21.75
2023-05-03T00:04:20.948Z,21.75
2023-05-03T00:05:21.052Z,21.77
2023-05-03T00:06:21.677Z,21.74
2023-05-03T00:07:21.100Z,21.75
2023-05-03T00:08:21.159Z,21.75
2023-05-03T00:09:21.219Z,21.75
2023-05-03T00:10:21.249Z,21.75
2023-05-03T00:11:21.302Z,21.73
2023-05-03T00:12:21.368Z,21.74
2023-05-03T00:13:21.372Z,21.73
2023-05-03T00:14:21.425Z,21.74
2023-05-03T00:15:21.649Z,21.74
2023-05-03T00:16:21.541Z,21.75
2023-05-03T00:17:21.545Z,21.74
2023-05-03T00:18:21.616Z,21.71
2023-05-03T00:19:31.079Z,21.73
2023-05-03T00:20:22.711Z,21.71
2023-05-03T00:21:21.658Z,21.74
2023-05-03T00:22:21.661Z,21.74
2023-05-03T00:23:21.640Z,21.73
2023-05-03T00:24:21.631Z,21.73
2023-05-03T00:25:21.655Z,21.73
2023-05-03T00:26:21.616Z,21.71
2023-05-03T00:27:21.613Z,21.73
2023-05-03T00:28:21.625Z,21.74
2023-05-03T00:29:21.591Z,21.74
2023-05-03T00:30:21.594Z,21.74
2023-05-03T00:31:21.674Z,21.73
2023-05-03T00:32:21.673Z,21.73
2023-05-03T00:33:21.734Z,21.71
2023-05-03T00:34:21.783Z,21.71
2023-05-03T00:35:22.148Z,21.71
2023-05-03T00:36:21.904Z,21.73
2023-05-03T00:37:21.918Z,21.71
2023-05-03T00:38:22.006Z,21.71
2023-05-03T00:39:22.045Z,21.71
2023-05-03T00:40:22.084Z,21.71
2023-05-03T00:41:22.138Z,21.74
2023-05-03T00:42:22.220Z,21.74
2023-05-03T00:43:22.284Z,21.70
2023-05-03T00:44:22.293Z,21.73
2023-05-03T00:45:22.363Z,21.70
2023-05-03T00:46:22.468Z,21.70
2023-05-03T00:47:22.504Z,21.71
2023-05-03T00:48:22.478Z,21.70
2023-05-03T00:49:22.530Z,21.71
2023-05-03T00:50:22.617Z,21.71
2023-05-03T00:51:22.662Z,21.70
2023-05-03T00:52:22.714Z,21.71
2023-05-03T00:53:22.750Z,21.68
2023-05-03T00:54:22.779Z,21.70
2023-05-03T00:55:22.834Z,21.71
2023-05-03T00:56:22.947Z,21.71
2023-05-03T00:57:22.994Z,21.71
2023-05-03T00:58:23.023Z,21.71
2023-05-03T00:59:23.033Z,21.71
2023-05-03T01:00:23.089Z,21.70
2023-05-03T01:01:23.255Z,21.70
2023-05-03T01:02:23.260Z,21.71
2023-05-03T01:03:23.323Z,21.70
2023-05-03T01:04:23.316Z,21.73
2023-05-03T01:05:23.347Z,21.71
2023-05-03T01:06:23.728Z,21.71
2023-05-03T01:07:23.441Z,21.71
2023-05-03T01:08:23.511Z,21.73
2023-05-03T01:09:23.545Z,21.68
2023-05-03T01:10:23.586Z,21.70
2023-05-03T01:11:23.634Z,21.70
2023-05-03T01:12:23.729Z,21.71
2023-05-03T01:13:23.744Z,21.70
2023-05-03T01:14:23.794Z,21.71
2023-05-03T01:15:23.841Z,21.68
2023-05-03T01:16:23.920Z,21.68
2023-05-03T01:17:23.953Z,21.68
2023-05-03T01:18:24.001Z,21.70
2023-05-03T01:19:24.059Z,21.68
2023-05-03T01:20:24.097Z,21.71
2023-05-03T01:21:24.151Z,21.71
2023-05-03T01:22:24.183Z,21.68
2023-05-03T01:23:24.216Z,21.67
2023-05-03T01:24:24.287Z,21.70
2023-05-03T01:25:24.382Z,21.68
2023-05-03T01:26:24.416Z,21.67
2023-05-03T01:27:24.462Z,21.68
2023-05-03T01:28:24.493Z,21.68
2023-05-03T01:29:24.613Z,21.70
2023-05-03T01:30:24.601Z,21.70
2023-05-03T01:31:24.743Z,21.68
2023-05-03T01:32:24.735Z,21.68
2023-05-03T01:33:24.762Z,21.67
2023-05-03T01:34:24.822Z,21.68
2023-05-03T01:35:24.862Z,21.67
2023-05-03T01:36:24.895Z,21.70
2023-05-03T01:37:24.988Z,21.67
2023-05-03T01:38:25.032Z,21.67
2023-05-03T01:39:25.082Z,21.67
2023-05-03T01:40:25.135Z,21.67
2023-05-03T01:41:25.178Z,21.67
2023-05-03T01:42:25.234Z,21.68
2023-05-03T01:43:25.270Z,21.65
2023-05-03T01:44:25.347Z,21.67
2023-05-03T01:45:25.354Z,21.67
2023-05-03T01:46:25.525Z,21.65
2023-05-03T01:47:25.499Z,21.70
2023-05-03T01:48:25.560Z,21.65
2023-05-03T01:49:25.580Z,21.67
2023-05-03T01:50:25.650Z,21.64
2023-05-03T01:51:26.199Z,21.65
2023-05-03T01:52:25.745Z,21.67
2023-05-03T01:53:25.798Z,21.65
2023-05-03T01:54:25.848Z,21.67
2023-05-03T01:55:25.889Z,21.67
2023-05-03T01:56:26.173Z,21.65
2023-05-03T01:57:25.980Z,21.64
2023-05-03T01:58:26.060Z,21.64
2023-05-03T01:59:26.119Z,21.68
2023-05-03T02:00:26.155Z,21.65
2023-05-03T02:01:26.267Z,21.67
2023-05-03T02:02:26.327Z,21.65
2023-05-03T02:03:26.305Z,21.65
2023-05-03T02:04:26.394Z,21.64
2023-05-03T02:05:26.402Z,21.64
2023-05-03T02:06:26.596Z,21.62
2023-05-03T02:07:26.522Z,21.65
2023-05-03T02:08:26.550Z,21.64
2023-05-03T02:09:26.605Z,21.65
2023-05-03T02:10:26.679Z,21.65
2023-05-03T02:11:26.745Z,21.64
2023-05-03T02:12:26.789Z,21.65
2023-05-03T02:13:26.832Z,21.65
2023-05-03T02:14:26.880Z,21.64
2023-05-03T02:15:26.904Z,21.67
2023-05-03T02:16:27.260Z,21.64
2023-05-03T02:17:27.073Z,21.64
2023-05-03T02:18:27.107Z,21.64
2023-05-03T02:19:27.173Z,21.64
2023-05-03T02:20:27.211Z,21.62
2023-05-03T02:21:27.304Z,21.65
2023-05-03T02:22:27.326Z,21.65
2023-05-03T02:23:27.420Z,21.64
2023-05-03T02:24:27.496Z,21.65
2023-05-03T02:25:27.866Z,21.62
2023-05-03T02:26:27.598Z,21.64
2023-05-03T02:27:27.650Z,21.62
2023-05-03T02:28:27.702Z,21.65
2023-05-03T02:29:27.734Z,21.64
2023-05-03T02:30:27.798Z,21.62
2023-05-03T02:31:27.986Z,21.62
2023-05-03T02:32:27.970Z,21.64
2023-05-03T02:33:28.010Z,21.61
2023-05-03T02:34:28.071Z,21.62
2023-05-03T02:35:28.101Z,21.62
2023-05-03T02:36:28.179Z,21.64
2023-05-03T02:37:28.260Z,21.62
2023-05-03T02:38:28.298Z,21.61
2023-05-03T02:39:28.376Z,21.64
2023-05-03T02:40:28.429Z,21.61
2023-05-03T02:41:28.448Z,21.62
2023-05-03T02:42:28.531Z,21.64
2023-05-03T02:43:28.556Z,21.64
2023-05-03T02:44:28.644Z,21.61
2023-05-03T02:45:28.686Z,21.62
2023-05-03T02:46:28.794Z,21.61
2023-05-03T02:47:28.803Z,21.61
2023-05-03T02:48:28.874Z,21.62
2023-05-03T02:49:28.942Z,21.61
2023-05-03T02:50:28.958Z,21.62
2023-05-03T02:51:29.010Z,21.62
2023-05-03T02:52:29.050Z,21.64
2023-05-03T02:53:29.124Z,21.62
2023-05-03T02:54:29.197Z,21.62
2023-05-03T02:55:29.215Z,21.62
2023-05-03T02:56:29.272Z,21.62
2023-05-03T02:57:29.352Z,21.62
2023-05-03T02:58:29.362Z,21.64
2023-05-03T02:59:29.435Z,21.62
2023-05-03T03:00:29.470Z,21.62
2023-05-03T03:01:29.532Z,21.60
2023-05-03T03:02:29.729Z,21.60
2023-05-03T03:03:29.699Z,21.60
2023-05-03T03:04:29.662Z,21.61
2023-05-03T03:05:29.711Z,21.58
2023-05-03T03:06:29.906Z,21.60
2023-05-03T03:07:29.817Z,21.62
2023-05-03T03:08:29.916Z,21.60
2023-05-03T03:09:29.949Z,21.60
2023-05-03T03:10:29.986Z,21.61
2023-05-03T03:11:30.080Z,21.60
2023-05-03T03:12:30.111Z,21.61
2023-05-03T03:13:30.140Z,21.61
2023-05-03T03:14:30.200Z,21.60
2023-05-03T03:15:30.254Z,21.61
2023-05-03T03:16:30.430Z,21.62
2023-05-03T03:17:30.357Z,21.60
2023-05-03T03:18:30.421Z,21.61
2023-05-03T03:19:30.452Z,21.61
2023-05-03T03:20:30.499Z,21.60
2023-05-03T03:21:30.722Z,21.61
2023-05-03T03:22:30.630Z,21.60
2023-05-03T03:23:30.694Z,21.61
2023-05-03T03:24:30.741Z,21.60
2023-05-03T03:25:30.767Z,21.60
2023-05-03T03:26:30.830Z,21.61
2023-05-03T03:27:30.889Z,21.58
2023-05-03T03:28:30.941Z,21.60
2023-05-03T03:29:30.992Z,21.58
2023-05-03T03:30:31.055Z,21.58
2023-05-03T03:31:31.156Z,21.60
2023-05-03T03:32:31.237Z,21.61
2023-05-03T03:33:31.217Z,21.58
2023-05-03T03:34:32.258Z,21.60
2023-05-03T03:35:31.334Z,21.60
2023-05-03T03:36:31.366Z,21.60
2023-05-03T03:37:31.401Z,21.58
2023-05-03T03:38:31.469Z,21.58
2023-05-03T03:39:31.556Z,21.57
2023-05-03T03:40:31.613Z,21.58
2023-05-03T03:41:31.667Z,21.57
2023-05-03T03:42:31.728Z,21.58
2023-05-03T03:43:31.787Z,21.58
2023-05-03T03:44:31.824Z,21.57
2023-05-03T03:45:31.907Z,21.58
2023-05-03T03:46:31.980Z,21.60
2023-05-03T03:47:32.021Z,21.57
2023-05-03T03:48:32.049Z,21.57
2023-05-03T03:49:32.094Z,21.58
2023-05-03T03:50:32.192Z,21.56
2023-05-03T03:51:32.225Z,21.57
2023-05-03T03:52:32.302Z,21.62
2023-05-03T03:53:32.435Z,21.58
2023-05-03T03:54:32.411Z,21.57
2023-05-03T03:55:32.446Z,21.58
2023-05-03T03:56:32.540Z,21.57
2023-05-03T03:57:32.556Z,21.57
2023-05-03T03:58:32.640Z,21.56
2023-05-03T03:59:32.672Z,21.58
2023-05-03T04:00:32.759Z,21.57
2023-05-03T04:01:32.794Z,21.58
2023-05-03T04:02:33.112Z,21.54
2023-05-03T04:03:32.991Z,21.54
2023-05-03T04:04:33.045Z,21.57
2023-05-03T04:05:33.027Z,21.57
2023-05-03T04:06:33.129Z,21.56
2023-05-03T04:07:33.144Z,21.57
2023-05-03T04:08:33.182Z,21.57
2023-05-03T04:09:33.262Z,21.57
2023-05-03T04:10:33.355Z,21.54
2023-05-03T04:11:33.379Z,21.54
2023-05-03T04:12:33.462Z,21.56
2023-05-03T04:13:33.504Z,21.53
2023-05-03T04:14:33.581Z,21.57
2023-05-03T04:15:33.617Z,21.58
2023-05-03T04:16:33.954Z,21.57
2023-05-03T04:17:33.774Z,21.54
2023-05-03T04:18:33.820Z,21.56
2023-05-03T04:19:33.843Z,21.57
2023-05-03T04:20:33.922Z,21.54
2023-05-03T04:21:34.258Z,21.56
2023-05-03T04:22:34.020Z,21.57
2023-05-03T04:23:34.108Z,21.57
2023-05-03T04:24:34.173Z,21.57
2023-05-03T04:25:34.239Z,21.54
2023-05-03T04:26:34.297Z,21.54
2023-05-03T04:27:34.352Z,21.57
2023-05-03T04:28:34.393Z,21.54
2023-05-03T04:29:34.467Z,21.54
2023-05-03T04:30:34.565Z,21.56
2023-05-03T04:31:34.783Z,21.54
2023-05-03T04:32:34.662Z,21.54
2023-05-03T04:33:34.717Z,21.56
2023-05-03T04:34:34.753Z,21.56
2023-05-03T04:35:34.828Z,21.53
2023-05-03T04:36:35.281Z,21.54
2023-05-03T04:37:34.969Z,21.54
2023-05-03T04:38:35.006Z,21.54
2023-05-03T04:39:35.078Z,21.53
2023-05-03T04:40:35.152Z,21.57
2023-05-03T04:41:35.204Z,21.54
2023-05-03T04:42:35.276Z,21.56
2023-05-03T04:43:35.292Z,21.51
2023-05-03T04:44:35.379Z,21.53
2023-05-03T04:45:35.449Z,21.56
2023-05-03T04:46:35.515Z,21.53
2023-05-03T04:47:35.575Z,21.51
2023-05-03T04:48:35.638Z,21.53
2023-05-03T04:49:35.669Z,21.54
2023-05-03T04:50:35.748Z,21.51
2023-05-03T04:51:35.836Z,21.53
2023-05-03T04:52:35.838Z,21.54
2023-05-03T04:53:35.909Z,21.53
2023-05-03T04:54:35.980Z,21.53
2023-05-03T04:55:36.033Z,21.54
2023-05-03T04:56:36.301Z,21.51
2023-05-03T04:57:36.194Z,21.54
2023-05-03T04:58:36.259Z,21.53
2023-05-03T04:59:36.272Z,21.50
2023-05-03T05:00:36.337Z,21.51
2023-05-03T05:01:36.437Z,21.51
2023-05-03T05:02:36.535Z,21.50
2023-05-03T05:03:36.704Z,21.53
2023-05-03T05:04:36.606Z,21.51
2023-05-03T05:05:36.663Z,21.53
2023-05-03T05:06:36.910Z,21.47
2023-05-03T05:07:36.808Z,21.51
2023-05-03T05:08:36.842Z,21.47
2023-05-03T05:09:36.930Z,21.46
2023-05-03T05:10:36.954Z,21.40
2023-05-03T05:11:37.312Z,21.42
2023-05-03T05:12:37.072Z,21.43
2023-05-03T05:13:37.150Z,21.43
2023-05-03T05:14:37.169Z,21.43
2023-05-03T05:15:37.261Z,21.42
2023-05-03T05:16:37.416Z,21.40
2023-05-03T05:17:37.568Z,21.37
2023-05-03T05:18:37.458Z,21.37
2023-05-03T05:19:37.477Z,21.36
2023-05-03T05:20:37.504Z,21.39
2023-05-03T05:21:37.530Z,21.37
2023-05-03T05:22:37.656Z,21.37
2023-05-03T05:23:37.549Z,21.37
2023-05-03T05:24:37.554Z,21.33
2023-05-03T05:25:37.573Z,21.36
2023-05-03T05:26:37.618Z,21.34
2023-05-03T05:27:37.639Z,21.32
2023-05-03T05:28:37.595Z,21.33
2023-05-03T05:29:37.593Z,21.36
2023-05-03T05:30:37.616Z,21.32
2023-05-03T05:31:37.680Z,21.29
2023-05-03T05:32:37.637Z,21.32
2023-05-03T05:33:37.595Z,21.30
2023-05-03T05:34:45.696Z,21.30
2023-05-03T05:35:38.608Z,21.30
2023-05-03T05:36:37.801Z,21.30
2023-05-03T05:37:37.573Z,21.29
2023-05-03T05:38:37.565Z,21.29
2023-05-03T05:39:37.584Z,21.27
2023-05-03T05:40:37.553Z,21.25
2023-05-03T05:41:37.583Z,21.26
2023-05-03T05:42:37.567Z,21.23
2023-05-03T05:43:37.531Z,21.25
2023-05-03T05:44:37.563Z,21.26
2023-05-03T05:45:37.559Z,21.26
2023-05-03T05:46:37.533Z,21.22
2023-05-03T05:47:37.558Z,21.30
2023-05-03T05:48:37.493Z,21.29
2023-05-03T05:49:37.562Z,21.33
2023-05-03T05:50:37.465Z,21.30
2023-05-03T05:51:37.521Z,21.34
2023-05-03T05:52:37.525Z,21.29
2023-05-03T05:53:37.541Z,21.26
2023-05-03T05:54:37.568Z,21.27
2023-05-03T05:55:37.534Z,21.27
2023-05-03T05:56:37.544Z,21.32
2023-05-03T05:57:37.828Z,21.32
2023-05-03T05:58:37.647Z,21.33
2023-05-03T05:59:37.611Z,21.29
2023-05-03T06:00:37.668Z,21.30
2023-05-03T06:01:37.654Z,21.33
2023-05-03T06:02:38.029Z,21.34
2023-05-03T06:03:37.720Z,21.34
2023-05-03T06:04:37.775Z,21.36
2023-05-03T06:05:37.716Z,21.33
2023-05-03T06:06:38.328Z,21.36
2023-05-03T06:07:37.686Z,21.36
2023-05-03T06:08:37.672Z,21.39
2023-05-03T06:09:37.667Z,21.37
2023-05-03T06:10:37.739Z,21.40
2023-05-03T06:11:37.670Z,21.39
2023-05-03T06:12:38.384Z,21.39
2023-05-03T06:13:37.650Z,21.39
2023-05-03T06:14:37.653Z,21.37
2023-05-03T06:15:37.693Z,21.40
2023-05-03T06:16:37.759Z,21.43
2023-05-03T06:17:37.681Z,21.42
2023-05-03T06:18:37.639Z,21.39
2023-05-03T06:19:37.669Z,21.43
2023-05-03T06:20:37.652Z,21.37
2023-05-03T06:21:37.642Z,21.40
2023-05-03T06:22:38.339Z,21.42
2023-05-03T06:23:37.670Z,21.40
2023-05-03T06:24:37.683Z,21.42
2023-05-03T06:25:37.664Z,21.40
2023-05-03T06:26:37.795Z,21.42
2023-05-03T06:27:37.697Z,21.42
2023-05-03T06:28:37.710Z,21.42
2023-05-03T06:29:37.677Z,21.43
2023-05-03T06:30:37.701Z,21.42
2023-05-03T06:31:37.846Z,21.43
2023-05-03T06:32:37.725Z,21.43
2023-05-03T06:33:37.713Z,21.43
2023-05-03T06:34:37.736Z,21.43
2023-05-03T06:35:37.693Z,21.43
2023-05-03T06:36:37.692Z,21.42
2023-05-03T06:37:37.706Z,21.42
2023-05-03T06:38:37.727Z,21.43
2023-05-03T06:39:37.727Z,21.43
2023-05-03T06:40:38.530Z,21.42
2023-05-03T06:41:37.724Z,21.42
2023-05-03T06:42:37.843Z,21.43
2023-05-03T06:43:37.777Z,21.44
2023-05-03T06:44:37.752Z,21.42
2023-05-03T06:45:37.771Z,21.42
2023-05-03T06:46:37.855Z,21.42
2023-05-03T06:47:37.821Z,21.43
2023-05-03T06:48:37.781Z,21.43
2023-05-03T06:49:37.735Z,21.44
2023-05-03T06:50:38.749Z,21.44
2023-05-03T06:51:37.735Z,21.43
2023-05-03T06:52:37.732Z,21.42
2023-05-03T06:53:37.732Z,21.43
2023-05-03T06:54:37.714Z,21.43
2023-05-03T06:55:37.690Z,21.47
2023-05-03T06:56:37.736Z,21.49
2023-05-03T06:57:37.839Z,21.53
2023-05-03T06:58:37.698Z,21.53
2023-05-03T06:59:37.653Z,21.56
2023-05-03T07:00:37.660Z,21.58
2023-05-03T07:01:37.700Z,21.62
2023-05-03T07:02:37.890Z,21.65
2023-05-03T07:03:40.136Z,21.68
2023-05-03T07:04:37.873Z,21.68
2023-05-03T07:05:37.816Z,21.71
2023-05-03T07:06:54.817Z,21.73
2023-05-03T07:07:38.780Z,21.75
2023-05-03T07:08:37.813Z,21.80
2023-05-03T07:09:43.213Z,21.82
2023-05-03T07:10:38.739Z,21.87
2023-05-03T07:11:37.760Z,21.91
2023-05-03T07:12:37.778Z,21.92
2023-05-03T07:13:37.768Z,21.95
2023-05-03T07:14:37.717Z,22.01
2023-05-03T07:15:37.721Z,22.02
2023-05-03T07:16:37.773Z,22.05
2023-05-03T07:17:37.824Z,22.05
2023-05-03T07:18:37.674Z,22.08
2023-05-03T07:19:37.708Z,22.11
2023-05-03T07:20:37.684Z,22.13
2023-05-03T07:21:37.664Z,22.17
2023-05-03T07:22:37.656Z,22.16
2023-05-03T07:23:37.664Z,22.20
2023-05-03T07:24:37.684Z,22.20
2023-05-03T07:25:37.673Z,22.23
2023-05-03T07:26:37.636Z,22.24
2023-05-03T07:27:37.632Z,22.24
2023-05-03T07:28:37.618Z,22.29
2023-05-03T07:29:37.636Z,22.30
2023-05-03T07:30:37.635Z,22.30
2023-05-03T07:31:37.683Z,22.32
2023-05-03T07:32:37.843Z,22.35
2023-05-03T07:33:38.065Z,22.36
2023-05-03T07:34:37.838Z,22.36
2023-05-03T07:35:37.930Z,22.39
2023-05-03T07:36:38.001Z,22.40
2023-05-03T07:37:38.047Z,22.39
2023-05-03T07:38:38.082Z,22.43
2023-05-03T07:39:38.165Z,22.43
2023-05-03T07:40:38.209Z,22.43
2023-05-03T07:41:38.235Z,22.46
2023-05-03T07:42:38.376Z,22.47
2023-05-03T07:43:38.333Z,22.53
2023-05-03T07:44:38.410Z,22.53
2023-05-03T07:45:38.432Z,22.55
2023-05-03T07:46:38.581Z,22.44
2023-05-03T07:47:38.585Z,22.37
2023-05-03T07:48:38.596Z,22.17
2023-05-03T07:49:38.614Z,22.06
2023-05-03T07:50:38.577Z,21.98
2023-05-03T07:51:38.638Z,21.88
2023-05-03T07:52:38.664Z,21.94
2023-05-03T07:53:38.694Z,21.92
2023-05-03T07:54:38.721Z,21.89
2023-05-03T07:55:39.713Z,21.89
2023-05-03T07:56:38.682Z,21.94
2023-05-03T07:57:38.876Z,21.99
2023-05-03T07:58:40.675Z,22.06
2023-05-03T07:59:38.679Z,22.09
2023-05-03T08:00:38.649Z,22.13
2023-05-03T08:01:38.639Z,22.20
2023-05-03T08:02:39.101Z,22.27
2023-05-03T08:03:38.833Z,22.30
2023-05-03T08:04:38.788Z,22.35
2023-05-03T08:05:38.740Z,22.40
2023-05-03T08:06:38.923Z,22.44
2023-05-03T08:07:38.825Z,22.50
2023-05-03T08:08:38.883Z,22.53
2023-05-03T08:09:38.930Z,22.60
2023-05-03T08:10:38.997Z,22.64
2023-05-03T08:11:39.809Z,22.67
2023-05-03T08:12:39.067Z,22.71
2023-05-03T08:13:39.105Z,22.74
2023-05-03T08:14:39.129Z,22.75
2023-05-03T08:15:39.156Z,22.81
2023-05-03T08:16:39.216Z,22.87
2023-05-03T08:17:39.405Z,22.88
2023-05-03T08:18:39.273Z,22.92
2023-05-03T08:19:39.240Z,22.95
2023-05-03T08:20:39.234Z,22.98
2023-05-03T08:21:39.266Z,22.99
2023-05-03T08:22:39.396Z,23.02
2023-05-03T08:23:39.259Z,23.03
2023-05-03T08:24:39.309Z,23.06
2023-05-03T08:25:39.254Z,23.09
2023-05-03T08:26:39.282Z,23.12
2023-05-03T08:27:40.411Z,23.16
2023-05-03T08:28:39.287Z,23.16
2023-05-03T08:29:39.251Z,23.17
2023-05-03T08:30:39.268Z,23.20
2023-05-03T08:31:39.342Z,23.22
2023-05-03T08:32:39.464Z,23.26
2023-05-03T08:33:39.233Z,23.27
2023-05-03T08:34:39.431Z,23.26
2023-05-03T08:35:39.299Z,23.31
2023-05-03T08:36:39.359Z,23.31
2023-05-03T08:37:39.384Z,23.33
2023-05-03T08:38:39.415Z,23.30
2023-05-03T08:39:39.464Z,23.29
2023-05-03T08:40:39.489Z,23.27
2023-05-03T08:41:39.482Z,23.33
2023-05-03T08:42:39.503Z,23.31
2023-05-03T08:43:39.499Z,23.29
2023-05-03T08:44:39.485Z,23.33
2023-05-03T08:45:39.514Z,23.31
2023-05-03T08:46:39.535Z,23.41
2023-05-03T08:47:39.905Z,23.41
2023-05-03T08:48:39.478Z,23.43
2023-05-03T08:49:39.448Z,23.44
2023-05-03T08:50:39.539Z,23.41
2023-05-03T08:51:39.480Z,23.37
2023-05-03T08:52:39.492Z,23.40
2023-05-03T08:53:39.454Z,23.43
2023-05-03T08:54:39.493Z,23.46
2023-05-03T08:55:39.487Z,23.44
2023-05-03T08:56:39.438Z,23.46
2023-05-03T08:57:39.437Z,23.46
2023-05-03T08:58:39.459Z,23.48
2023-05-03T08:59:39.500Z,23.50
2023-05-03T09:00:39.474Z,23.51
2023-05-03T09:01:39.573Z,23.48
2023-05-03T09:02:39.608Z,23.50
2023-05-03T09:03:39.590Z,23.48
2023-05-03T09:04:39.473Z,23.53
2023-05-03T09:05:39.430Z,23.53
2023-05-03T09:06:39.469Z,23.53
2023-05-03T09:07:39.463Z,23.51
2023-05-03T09:08:39.450Z,23.54
2023-05-03T09:09:39.506Z,23.57
2023-05-03T09:10:39.502Z,23.60
2023-05-03T09:11:39.540Z,23.58
2023-05-03T09:12:39.634Z,23.58
2023-05-03T09:13:39.663Z,23.62
2023-05-03T09:14:39.725Z,23.65
2023-05-03T09:15:39.752Z,23.69
2023-05-03T09:16:39.859Z,23.72
2023-05-03T09:17:39.942Z,23.75
2023-05-03T09:18:39.928Z,23.76
2023-05-03T09:19:39.982Z,23.81
2023-05-03T09:20:40.100Z,23.81
2023-05-03T09:21:40.146Z,23.81
2023-05-03T09:22:40.481Z,23.83
2023-05-03T09:23:40.238Z,23.83
2023-05-03T09:24:40.327Z,23.85
2023-05-03T09:25:40.361Z,23.86
2023-05-03T09:26:40.436Z,23.90
2023-05-03T09:27:40.946Z,23.88
2023-05-03T09:28:40.514Z,23.89
2023-05-03T09:29:40.591Z,23.92
2023-05-03T09:30:40.641Z,23.93
2023-05-03T09:31:40.758Z,23.96
2023-05-03T09:32:40.993Z,23.96
2023-05-03T09:33:40.791Z,23.98
2023-05-03T09:34:40.860Z,23.99
2023-05-03T09:35:40.920Z,24.02
2023-05-03T09:36:42.813Z,24.02
2023-05-03T09:37:40.992Z,24.07
2023-05-03T09:38:41.063Z,24.05
2023-05-03T09:39:41.077Z,24.06
2023-05-03T09:40:41.115Z,24.10
2023-05-03T09:41:41.139Z,24.12
2023-05-03T09:42:41.178Z,24.12
2023-05-03T09:43:41.174Z,24.12
2023-05-03T09:44:41.214Z,24.16
2023-05-03T09:45:41.275Z,24.16
2023-05-03T09:46:41.290Z,24.19
2023-05-03T09:47:41.353Z,24.17
2023-05-03T09:48:41.399Z,24.13
2023-05-03T09:49:41.376Z,24.16
2023-05-03T09:50:41.395Z,24.19
2023-05-03T09:51:41.374Z,24.20
2023-05-03T09:52:41.403Z,24.21
2023-05-03T09:53:41.432Z,24.20
2023-05-03T09:54:41.475Z,24.16
2023-05-03T09:55:41.495Z,24.15
2023-05-03T09:56:41.480Z,24.10
2023-05-03T09:57:42.438Z,24.12
2023-05-03T09:58:41.549Z,24.06
2023-05-03T09:59:41.586Z,24.02
2023-05-03T10:00:41.635Z,24.00
2023-05-03T10:01:41.809Z,23.95
2023-05-03T10:02:42.003Z,23.93
2023-05-03T10:03:41.803Z,23.90
2023-05-03T10:04:41.852Z,23.86
2023-05-03T10:05:41.905Z,23.83
2023-05-03T10:06:42.011Z,23.81
2023-05-03T10:07:42.080Z,23.76
2023-05-03T10:08:42.087Z,23.74
2023-05-03T10:09:42.131Z,23.71
2023-05-03T10:10:42.275Z,23.68
2023-05-03T10:11:42.240Z,23.66
2023-05-03T10:12:42.262Z,23.62
2023-05-03T10:13:42.298Z,23.62
2023-05-03T10:14:42.344Z,23.58
2023-05-03T10:15:42.457Z,23.58
2023-05-03T10:16:42.456Z,23.55
2023-05-03T10:17:48.363Z,23.51
2023-05-03T10:18:43.479Z,23.47
2023-05-03T10:19:42.514Z,23.47
2023-05-03T10:20:42.477Z,23.47
2023-05-03T10:21:42.458Z,23.44
2023-05-03T10:22:42.505Z,23.43
2023-05-03T10:23:42.437Z,23.41
2023-05-03T10:24:42.453Z,23.40
2023-05-03T10:25:42.448Z,23.39
2023-05-03T10:26:42.461Z,23.37
2023-05-03T10:27:42.441Z,23.34
2023-05-03T10:28:42.448Z,23.34
2023-05-03T10:29:42.408Z,23.31
2023-05-03T10:30:43.007Z,23.31
2023-05-03T10:31:42.459Z,23.31
2023-05-03T10:32:42.416Z,23.29
2023-05-03T10:33:42.415Z,23.27
2023-05-03T10:34:43.885Z,23.24
2023-05-03T10:35:42.376Z,23.24
2023-05-03T10:36:49.364Z,23.23
2023-05-03T10:37:43.344Z,23.20
2023-05-03T10:38:42.342Z,23.20
2023-05-03T10:39:42.334Z,23.19
2023-05-03T10:40:42.344Z,23.17
2023-05-03T10:41:42.367Z,23.17
2023-05-03T10:42:42.317Z,23.16
2023-05-03T10:43:42.519Z,23.14
2023-05-03T10:44:42.310Z,23.13
2023-05-03T10:45:42.314Z,23.13
2023-05-03T10:46:42.346Z,23.12
2023-05-03T10:47:42.317Z,23.10
2023-05-03T10:48:42.298Z,23.10
2023-05-03T10:49:42.281Z,23.10
2023-05-03T10:50:42.270Z,23.09
2023-05-03T10:51:42.271Z,23.10
2023-05-03T10:52:42.247Z,23.09
2023-05-03T10:53:42.280Z,23.07
2023-05-03T10:54:42.206Z,23.07
2023-05-03T10:55:42.217Z,23.06
2023-05-03T10:56:42.195Z,23.03
2023-05-03T10:57:42.256Z,23.03
2023-05-03T10:58:42.285Z,23.03
2023-05-03T10:59:42.289Z,23.03
2023-05-03T11:00:42.336Z,23.02
2023-05-03T11:01:42.395Z,23.02
2023-05-03T11:02:42.428Z,23.02
2023-05-03T11:03:42.457Z,23.01
2023-05-03T11:04:42.519Z,22.95
2023-05-03T11:05:42.521Z,22.99
2023-05-03T11:06:42.630Z,22.98
2023-05-03T11:07:42.587Z,22.96
2023-05-03T11:08:42.624Z,22.95
2023-05-03T11:09:42.677Z,22.96
2023-05-03T11:10:42.694Z,22.92
2023-05-03T11:11:42.729Z,22.91
2023-05-03T11:12:42.740Z,22.98
2023-05-03T11:13:42.824Z,22.92
2023-05-03T11:14:42.843Z,22.89
2023-05-03T11:15:42.863Z,22.95
2023-05-03T11:16:42.903Z,22.89
2023-05-03T11:17:42.982Z,22.89
2023-05-03T11:18:42.998Z,22.89
2023-05-03T11:19:43.087Z,22.87
2023-05-03T11:20:43.022Z,22.88
2023-05-03T11:21:43.067Z,22.88
2023-05-03T11:22:43.100Z,22.89
2023-05-03T11:23:43.502Z,22.88
2023-05-03T11:24:43.195Z,22.84
2023-05-03T11:25:43.254Z,22.85
2023-05-03T11:26:43.276Z,22.84
2023-05-03T11:27:43.332Z,22.85
2023-05-03T11:28:43.358Z,22.82
2023-05-03T11:29:43.371Z,22.84
2023-05-03T11:30:43.425Z,22.81
2023-05-03T11:31:43.661Z,22.84
2023-05-03T11:32:43.584Z,22.82
2023-05-03T11:33:43.920Z,22.82
2023-05-03T11:34:43.593Z,22.81
2023-05-03T11:35:43.629Z,22.76
2023-05-03T11:36:43.712Z,22.79
2023-05-03T11:37:43.798Z,22.81
2023-05-03T11:38:43.787Z,22.81
2023-05-03T11:39:43.816Z,22.79
2023-05-03T11:40:43.888Z,22.79
2023-05-03T11:41:43.936Z,22.78
2023-05-03T11:42:43.989Z,22.78
2023-05-03T11:43:44.013Z,22.79
2023-05-03T11:44:44.075Z,22.78
2023-05-03T11:45:44.446Z,22.78
2023-05-03T11:46:44.205Z,22.78
2023-05-03T11:47:44.285Z,22.78
2023-05-03T11:48:44.290Z,22.76
2023-05-03T11:49:44.310Z,22.78
2023-05-03T11:50:44.372Z,22.78
2023-05-03T11:51:46.795Z,22.79
2023-05-03T11:52:44.404Z,22.81
2023-05-03T11:53:44.397Z,22.79
2023-05-03T11:54:44.394Z,22.79
2023-05-03T11:55:44.374Z,22.81
2023-05-03T11:56:45.401Z,22.81
2023-05-03T11:57:44.356Z,22.78
2023-05-03T11:58:44.403Z,22.82
2023-05-03T11:59:44.380Z,22.82
2023-05-03T12:00:44.337Z,22.82
2023-05-03T12:01:44.361Z,22.82
2023-05-03T12:02:44.695Z,22.82
2023-05-03T12:03:44.592Z,22.84
2023-05-03T12:04:46.137Z,22.84
2023-05-03T12:05:44.740Z,22.84
2023-05-03T12:06:45.462Z,22.81
2023-05-03T12:07:44.671Z,22.82
2023-05-03T12:08:45.203Z,22.82
2023-05-03T12:09:50.225Z,22.82
2023-05-03T12:10:45.868Z,22.82
2023-05-03T12:11:45.365Z,22.84
2023-05-03T12:12:49.042Z,22.82
2023-05-03T12:13:45.536Z,22.81
2023-05-03T12:14:45.612Z,22.81
2023-05-03T12:15:48.507Z,22.81
2023-05-03T12:16:45.477Z,22.81
2023-05-03T12:17:45.446Z,22.79
2023-05-03T12:19:44.962Z,22.81
2023-05-03T12:21:29.100Z,22.79
2023-05-03T12:21:54.268Z,22.76
2023-05-03T12:22:45.883Z,22.78
2023-05-03T12:23:45.913Z,22.75
2023-05-03T12:24:45.384Z,22.76
2023-05-03T12:25:45.163Z,22.72
2023-05-03T12:26:44.317Z,22.72
2023-05-03T12:27:46.133Z,22.72
2023-05-03T12:28:45.596Z,22.71
2023-05-03T12:29:46.827Z,22.71
2023-05-03T12:30:46.001Z,22.71
2023-05-03T12:31:44.548Z,22.68
2023-05-03T12:32:44.581Z,22.70
2023-05-03T12:33:55.385Z,22.68
2023-05-03T12:34:47.127Z,22.67
2023-05-03T12:35:46.880Z,22.67
2023-05-03T12:36:44.590Z,22.68
2023-05-03T12:37:44.381Z,22.67
2023-05-03T12:38:44.711Z,22.65
2023-05-03T12:39:47.514Z,22.68
2023-05-03T12:40:45.669Z,22.62
2023-05-03T12:42:44.282Z,22.67
2023-05-03T12:43:44.616Z,22.65
2023-05-03T12:44:46.609Z,22.67
2023-05-03T12:45:46.918Z,22.65
2023-05-03T12:46:45.865Z,22.67
2023-05-03T12:47:44.768Z,22.64
2023-05-03T12:48:46.680Z,22.64
2023-05-03T12:49:46.237Z,22.65
2023-05-03T12:50:45.443Z,22.65
2023-05-03T12:51:52.056Z,22.65
2023-05-03T12:52:45.754Z,22.60
2023-05-03T12:54:48.259Z,22.64
2023-05-03T12:55:44.916Z,22.61